createdAt,value
2017-11-30T00:02:09.030Z,32.43
2017-11-30T00:04:36.501Z,37.40
2017-11-30T00:07:03.990Z,33.40
2017-11-30T00:09:31.463Z,34.90
2017-11-30T00:11:58.934Z,32.47
2017-11-30T00:14:26.422Z,30.97
2017-11-30T00:16:53.891Z,29.07
2017-11-30T00:19:21.355Z,29.53
2017-11-30T00:21:48.843Z,32.90
2017-11-30T00:24:16.311Z,33.57
2017-11-30T00:26:43.778Z,33.07
2017-11-30T00:29:11.263Z,30.83
2017-11-30T00:31:38.747Z,32.80
2017-11-30T00:34:06.222Z,29.07
2017-11-30T00:36:33.718Z,29.47
2017-11-30T00:39:01.191Z,27.37
2017-11-30T00:41:28.874Z,24.60
2017-11-30T00:43:56.342Z,24.13
2017-11-30T00:46:23.810Z,23.90
2017-11-30T00:48:51.277Z,24.33
2017-11-30T00:51:18.808Z,23.43
2017-11-30T00:53:46.274Z,21.20
2017-11-30T00:56:13.738Z,22.80
2017-11-30T00:58:41.227Z,24.23
2017-11-30T01:01:08.698Z,23.73
2017-11-30T01:03:36.175Z,23.40
2017-11-30T01:06:03.666Z,19.23
2017-11-30T01:08:31.138Z,19.67
2017-11-30T01:10:58.614Z,21.10
2017-11-30T01:13:26.110Z,21.77
2017-11-30T01:15:53.579Z,25.50
2017-11-30T01:18:21.070Z,22.67
2017-11-30T01:20:48.554Z,21.00
2017-11-30T01:23:16.047Z,24.20
2017-11-30T01:25:43.583Z,27.70
2017-11-30T01:28:11.058Z,23.97
2017-11-30T01:30:38.553Z,24.33
2017-11-30T01:33:06.027Z,24.60
2017-11-30T01:35:33.505Z,25.93
2017-11-30T01:38:00.995Z,27.93
2017-11-30T01:40:28.486Z,28.83
2017-11-30T01:42:55.978Z,28.73
2017-11-30T01:45:23.458Z,31.13
2017-11-30T01:47:50.938Z,30.97
2017-11-30T01:50:18.422Z,30.43
2017-11-30T01:52:45.891Z,32.37
2017-11-30T01:55:13.383Z,32.30
2017-11-30T01:57:40.858Z,29.97
2017-11-30T02:00:08.335Z,32.57
2017-11-30T02:02:35.827Z,33.37
2017-11-30T02:05:03.303Z,33.37
2017-11-30T02:07:30.791Z,32.37
2017-11-30T02:09:58.338Z,33.20
2017-11-30T02:12:25.806Z,35.07
2017-11-30T02:14:53.290Z,35.37
2017-11-30T02:17:20.766Z,33.47
2017-11-30T02:22:39.183Z,35.90
2017-11-30T02:25:06.654Z,34.00
2017-11-30T02:27:34.133Z,33.73
2017-11-30T02:30:01.637Z,35.60
2017-11-30T02:32:29.112Z,38.07
2017-11-30T02:34:56.595Z,34.93
2017-11-30T02:37:24.097Z,33.83
2017-11-30T02:39:51.567Z,34.27
2017-11-30T02:42:19.042Z,34.10
2017-11-30T02:44:46.533Z,30.83
2017-11-30T02:47:14.048Z,34.77
2017-11-30T02:49:41.521Z,29.73
2017-11-30T02:52:09.060Z,33.23
2017-11-30T02:54:36.535Z,30.50
2017-11-30T02:57:04.005Z,29.93
2017-11-30T02:59:31.493Z,28.20
2017-11-30T03:01:58.974Z,26.20
2017-11-30T03:04:26.456Z,28.77
2017-11-30T03:06:53.946Z,28.00
2017-11-30T03:09:21.415Z,27.57
2017-11-30T03:11:48.898Z,27.83
2017-11-30T03:14:16.390Z,31.33
2017-11-30T03:16:43.874Z,28.03
2017-11-30T03:19:11.362Z,31.00
2017-11-30T03:21:38.834Z,29.97
2017-11-30T03:24:06.313Z,28.53
2017-11-30T03:26:33.978Z,29.17
2017-11-30T03:29:01.453Z,24.50
2017-11-30T03:31:28.945Z,29.30
2017-11-30T03:33:56.418Z,27.20
2017-11-30T03:36:23.885Z,26.90
2017-11-30T03:38:51.370Z,28.73
2017-11-30T03:41:18.846Z,27.57
2017-11-30T03:43:46.367Z,27.63
2017-11-30T03:46:13.843Z,25.57
2017-11-30T03:48:41.337Z,23.30
2017-11-30T03:51:08.829Z,23.93
2017-11-30T03:53:36.309Z,26.03
2017-11-30T03:56:03.793Z,25.43
2017-11-30T03:58:31.263Z,25.67
2017-11-30T04:00:58.729Z,25.73
2017-11-30T04:03:26.215Z,25.87
2017-11-30T04:05:53.685Z,22.00
2017-11-30T04:08:21.245Z,20.93
2017-11-30T04:10:48.714Z,22.33
2017-11-30T04:13:16.190Z,25.23
2017-11-30T04:15:43.683Z,20.70
2017-11-30T04:18:11.162Z,21.83
2017-11-30T04:20:38.631Z,21.50
2017-11-30T04:23:06.134Z,22.57
2017-11-30T04:25:33.614Z,22.53
2017-11-30T04:28:01.090Z,24.03
2017-11-30T04:30:28.581Z,25.57
2017-11-30T04:32:56.053Z,22.47
2017-11-30T04:35:23.527Z,23.40
2017-11-30T04:37:51.029Z,22.73
2017-11-30T04:40:18.503Z,22.40
2017-11-30T04:42:46.047Z,21.43
2017-11-30T04:45:13.534Z,22.23
2017-11-30T04:47:41.006Z,20.53
2017-11-30T04:50:08.474Z,21.83
2017-11-30T04:52:35.962Z,22.07
2017-11-30T04:55:03.445Z,21.43
2017-11-30T04:57:30.924Z,22.17
2017-11-30T04:59:58.420Z,23.40
2017-11-30T05:02:25.890Z,22.37
2017-11-30T05:04:53.383Z,22.53
2017-11-30T05:07:20.858Z,21.10
2017-11-30T05:09:48.330Z,21.80
2017-11-30T05:12:15.830Z,23.40
2017-11-30T05:14:43.306Z,22.90
2017-11-30T05:17:10.786Z,24.60
2017-11-30T05:19:38.277Z,25.83
2017-11-30T05:22:05.760Z,26.50
2017-11-30T05:24:33.233Z,26.80
2017-11-30T05:27:00.734Z,29.53
2017-11-30T05:29:28.207Z,27.03
2017-11-30T05:31:55.682Z,27.67
2017-11-30T05:34:23.175Z,29.93
2017-11-30T05:36:50.646Z,28.83
2017-11-30T05:39:18.118Z,28.90
2017-11-30T05:41:45.630Z,28.43
2017-11-30T05:44:13.101Z,27.13
2017-11-30T05:46:40.573Z,27.20
2017-11-30T05:49:08.069Z,26.67
2017-11-30T05:51:35.558Z,28.10
2017-11-30T05:54:03.032Z,28.83
2017-11-30T05:56:30.602Z,27.80
2017-11-30T05:58:58.076Z,26.67
2017-11-30T06:01:25.555Z,28.37
2017-11-30T06:03:53.041Z,27.47
2017-11-30T06:06:20.534Z,26.80
2017-11-30T06:08:48.030Z,27.53
2017-11-30T06:11:15.524Z,28.30
2017-11-30T06:13:43.007Z,26.70
2017-11-30T06:16:10.499Z,25.53
2017-11-30T06:18:37.980Z,26.27
2017-11-30T06:21:05.462Z,24.87
2017-11-30T06:23:32.954Z,25.37
2017-11-30T06:26:00.438Z,25.27
2017-11-30T06:28:27.926Z,23.57
2017-11-30T06:30:55.401Z,23.97
2017-11-30T06:33:22.869Z,26.00
2017-11-30T06:35:50.360Z,22.83
2017-11-30T06:38:17.831Z,25.17
2017-11-30T06:40:45.343Z,24.40
2017-11-30T06:43:12.819Z,20.90
2017-11-30T06:45:40.362Z,23.13
2017-11-30T06:48:07.854Z,25.60
2017-11-30T06:50:35.968Z,23.90
2017-11-30T06:53:03.553Z,24.17
2017-11-30T06:55:31.030Z,22.93
2017-11-30T06:57:58.507Z,23.33
2017-11-30T07:00:25.997Z,24.30
2017-11-30T07:02:53.475Z,24.00
2017-11-30T07:05:21.351Z,22.87
2017-11-30T07:07:48.826Z,21.27
2017-11-30T07:10:16.293Z,24.43
2017-11-30T07:12:43.790Z,21.73
2017-11-30T07:15:11.264Z,22.30
2017-11-30T07:17:38.735Z,22.77
2017-11-30T07:20:06.245Z,21.73
2017-11-30T07:22:33.722Z,23.33
2017-11-30T07:25:01.230Z,22.43
2017-11-30T07:27:29.042Z,22.83
2017-11-30T07:29:56.537Z,22.40
2017-11-30T07:32:24.066Z,23.73
2017-11-30T07:34:51.566Z,23.37
2017-11-30T07:37:19.113Z,22.13
2017-11-30T07:39:46.722Z,22.00
2017-11-30T07:42:14.218Z,21.83
2017-11-30T07:44:41.693Z,21.27
2017-11-30T07:47:09.190Z,21.33
2017-11-30T07:49:36.688Z,20.57
2017-11-30T07:52:04.216Z,19.87
2017-11-30T07:54:31.691Z,24.50
2017-11-30T07:56:59.189Z,21.53
2017-11-30T07:59:26.662Z,20.47
2017-11-30T08:01:54.131Z,20.57
2017-11-30T08:04:21.626Z,20.53
2017-11-30T08:06:49.106Z,20.50
2017-11-30T08:09:16.594Z,19.17
2017-11-30T08:11:44.086Z,18.20
2017-11-30T08:14:11.553Z,20.03
2017-11-30T08:16:39.028Z,18.30
2017-11-30T08:19:06.525Z,19.47
2017-11-30T08:21:33.996Z,18.97
2017-11-30T08:24:01.506Z,16.83
2017-11-30T08:26:28.992Z,17.20
2017-11-30T08:28:56.458Z,17.77
2017-11-30T08:31:23.942Z,17.67
2017-11-30T08:33:51.406Z,17.27
2017-11-30T08:36:18.894Z,16.03
2017-11-30T08:38:46.375Z,16.13
2017-11-30T08:41:13.854Z,18.27
2017-11-30T08:43:41.506Z,18.10
2017-11-30T08:46:08.981Z,15.57
2017-11-30T08:48:36.471Z,16.73
2017-11-30T08:51:03.938Z,16.23
2017-11-30T08:53:31.402Z,16.43
2017-11-30T08:55:58.902Z,15.03
2017-11-30T08:58:26.378Z,14.47
2017-11-30T09:00:53.862Z,15.63
2017-11-30T09:03:21.339Z,16.73
2017-11-30T09:05:48.810Z,16.40
2017-11-30T09:08:16.487Z,14.70
2017-11-30T09:10:43.955Z,15.50
2017-11-30T09:13:11.426Z,15.57
2017-11-30T09:15:38.925Z,14.57
2017-11-30T09:18:06.403Z,15.77
2017-11-30T09:20:33.871Z,15.60
2017-11-30T09:23:01.360Z,14.17
2017-11-30T09:25:28.825Z,15.83
2017-11-30T09:27:56.295Z,12.73
2017-11-30T09:30:23.782Z,13.80
2017-11-30T09:32:51.261Z,13.63
2017-11-30T09:35:18.731Z,13.00
2017-11-30T09:37:46.236Z,12.70
2017-11-30T09:40:13.779Z,13.27
2017-11-30T09:42:41.260Z,13.30
2017-11-30T09:45:08.841Z,13.97
2017-11-30T09:47:36.542Z,13.03
2017-11-30T09:50:04.019Z,13.80
2017-11-30T09:52:31.507Z,13.43
2017-11-30T09:54:58.982Z,14.93
2017-11-30T09:57:26.846Z,12.70
2017-11-30T09:59:54.358Z,14.37
2017-11-30T10:02:21.830Z,14.20
2017-11-30T10:04:49.306Z,11.30
2017-11-30T10:07:16.876Z,12.23
2017-11-30T10:09:44.354Z,13.17
2017-11-30T10:12:11.829Z,12.10
2017-11-30T10:14:39.330Z,12.17
2017-11-30T10:17:06.803Z,14.27
2017-11-30T10:19:34.293Z,14.00
2017-11-30T10:22:01.766Z,12.33
2017-11-30T10:24:29.238Z,12.50
2017-11-30T10:26:56.722Z,14.63
2017-11-30T10:29:24.190Z,11.70
2017-11-30T10:31:51.683Z,13.20
2017-11-30T10:34:19.152Z,12.40
2017-11-30T10:36:47.823Z,11.77
2017-11-30T10:39:15.305Z,12.10
2017-11-30T10:41:42.775Z,11.80
2017-11-30T10:44:10.249Z,12.77
2017-11-30T10:46:37.734Z,11.13
2017-11-30T10:49:05.211Z,10.47
2017-11-30T10:51:33.222Z,11.73
2017-11-30T10:54:00.778Z,10.63
2017-11-30T10:56:28.251Z,10.80
2017-11-30T10:58:55.770Z,11.60
2017-11-30T11:01:23.246Z,11.20
2017-11-30T11:03:50.785Z,11.93
2017-11-30T11:06:18.739Z,10.50
2017-11-30T11:08:46.206Z,11.73
2017-11-30T11:11:13.712Z,10.63
2017-11-30T11:13:41.202Z,11.30
2017-11-30T11:16:08.671Z,11.30
2017-11-30T11:18:36.350Z,10.67
2017-11-30T11:21:03.838Z,11.63
2017-11-30T11:23:31.310Z,10.93
2017-11-30T11:25:58.774Z,12.03
2017-11-30T11:28:26.267Z,11.40
2017-11-30T11:30:53.799Z,10.70
2017-11-30T11:33:21.278Z,11.73
2017-11-30T11:35:48.763Z,11.93
2017-11-30T11:38:16.239Z,12.17
2017-11-30T11:40:43.714Z,16.73
2017-11-30T11:43:11.205Z,11.27
2017-11-30T11:45:38.675Z,12.60
2017-11-30T11:48:06.179Z,11.10
2017-11-30T11:50:33.666Z,11.17
2017-11-30T11:53:01.135Z,11.60
2017-11-30T11:55:28.606Z,12.43
2017-11-30T11:57:56.098Z,11.77
2017-11-30T12:00:23.565Z,12.00
2017-11-30T12:02:51.035Z,12.67
2017-11-30T12:05:18.524Z,13.73
2017-11-30T12:07:46.002Z,12.17
2017-11-30T12:10:13.525Z,13.43
2017-11-30T12:12:41.011Z,13.00
2017-11-30T12:15:08.482Z,14.17
2017-11-30T12:17:35.990Z,13.67
2017-11-30T12:20:03.457Z,14.50
2017-11-30T12:22:30.931Z,18.00
2017-11-30T12:24:58.413Z,14.03
2017-11-30T12:27:25.903Z,12.83
2017-11-30T12:29:53.414Z,14.47
2017-11-30T12:32:20.882Z,15.50
2017-11-30T12:34:48.350Z,13.33
2017-11-30T12:37:15.841Z,14.30
2017-11-30T12:39:43.310Z,13.27
2017-11-30T12:42:10.807Z,13.53
2017-11-30T12:44:38.279Z,14.50
2017-11-30T12:47:05.755Z,13.70
2017-11-30T12:49:33.243Z,15.67
2017-11-30T12:52:00.718Z,16.13
2017-11-30T12:54:28.206Z,13.80
2017-11-30T12:56:55.727Z,14.17
2017-11-30T12:59:23.228Z,14.77
2017-11-30T13:01:50.708Z,14.87
2017-11-30T13:04:18.173Z,15.63
2017-11-30T13:06:45.800Z,15.10
2017-11-30T13:09:13.273Z,15.30
2017-11-30T13:11:40.760Z,16.07
2017-11-30T13:14:08.248Z,14.73
2017-11-30T13:16:35.713Z,14.87
2017-11-30T13:19:03.237Z,16.57
2017-11-30T13:21:30.801Z,15.30
2017-11-30T13:23:58.268Z,13.90
2017-11-30T13:26:25.733Z,15.73
2017-11-30T13:28:53.221Z,14.77
2017-11-30T13:31:20.685Z,13.97
2017-11-30T13:33:48.165Z,13.20
2017-11-30T13:36:15.642Z,12.70
2017-11-30T13:38:43.113Z,12.87
2017-11-30T13:41:10.593Z,12.40
2017-11-30T13:43:38.057Z,13.67
2017-11-30T13:46:05.573Z,13.77
2017-11-30T13:48:33.038Z,13.93
2017-11-30T13:51:00.500Z,13.40
2017-11-30T13:53:27.993Z,14.57
2017-11-30T13:55:55.461Z,14.57
2017-11-30T13:58:22.949Z,15.20
2017-11-30T14:00:50.417Z,14.87
2017-11-30T14:03:17.885Z,16.07
2017-11-30T14:05:45.372Z,17.13
2017-11-30T14:08:12.846Z,14.90
2017-11-30T14:10:40.337Z,15.27
2017-11-30T14:13:07.814Z,14.50
2017-11-30T14:15:35.289Z,13.03
2017-11-30T14:18:02.777Z,15.77
2017-11-30T14:20:30.244Z,14.20
2017-11-30T14:22:57.705Z,14.27
2017-11-30T14:25:25.205Z,14.27
2017-11-30T14:27:52.668Z,12.60
2017-11-30T14:30:20.142Z,14.20
2017-11-30T14:32:47.637Z,13.90
2017-11-30T14:35:15.113Z,14.30
2017-11-30T14:37:42.644Z,18.77
2017-11-30T14:40:10.133Z,17.17
2017-11-30T14:42:37.727Z,15.90
2017-11-30T14:45:05.189Z,13.93
2017-11-30T14:47:32.673Z,16.03
2017-11-30T14:50:00.153Z,14.20
2017-11-30T14:52:27.621Z,15.00
2017-11-30T14:54:55.109Z,13.27
2017-11-30T14:57:22.573Z,14.60
2017-11-30T14:59:50.037Z,16.90
2017-11-30T15:02:17.516Z,14.03
2017-11-30T15:04:44.981Z,13.97
2017-11-30T15:07:12.473Z,12.83
2017-11-30T15:09:39.946Z,13.17
2017-11-30T15:12:07.416Z,13.97
2017-11-30T15:14:34.929Z,14.10
2017-11-30T15:17:02.401Z,13.17
2017-11-30T15:19:29.873Z,15.73
2017-11-30T15:21:57.356Z,14.23
2017-11-30T15:24:24.821Z,14.23
2017-11-30T15:26:52.333Z,17.87
2017-11-30T15:29:19.824Z,14.63
2017-11-30T15:31:49.389Z,14.63
2017-11-30T15:34:16.904Z,13.70
2017-11-30T15:36:44.395Z,14.00
2017-11-30T15:39:11.952Z,14.80
2017-11-30T15:41:39.472Z,14.03
2017-11-30T15:44:06.961Z,12.67
2017-11-30T15:46:34.489Z,15.17
2017-11-30T15:49:01.965Z,13.47
2017-11-30T15:51:29.453Z,13.93
2017-11-30T15:53:56.920Z,15.97
2017-11-30T15:56:24.389Z,13.90
2017-11-30T15:58:52.029Z,14.33
2017-11-30T16:01:19.501Z,15.43
2017-11-30T16:03:46.977Z,16.97
2017-11-30T16:06:14.469Z,15.13
2017-11-30T16:08:41.944Z,15.93
2017-11-30T16:11:09.453Z,25.93
2017-11-30T16:13:36.928Z,24.80
2017-11-30T16:16:04.397Z,21.77
2017-11-30T16:18:31.880Z,17.97
2017-11-30T16:20:59.349Z,32.07
2017-11-30T16:23:26.815Z,29.97
2017-11-30T16:25:54.300Z,17.67
2017-11-30T16:28:21.769Z,18.80
2017-11-30T16:30:49.259Z,19.83
2017-11-30T16:33:16.769Z,17.33
2017-11-30T16:35:44.247Z,18.47
2017-11-30T16:38:11.749Z,19.17
2017-11-30T16:40:39.219Z,21.03
2017-11-30T16:43:06.731Z,18.10
2017-11-30T16:45:34.201Z,20.00
2017-11-30T16:48:01.719Z,18.43
2017-11-30T16:50:29.189Z,15.70
2017-11-30T16:52:56.672Z,15.90
2017-11-30T16:55:24.745Z,18.50
2017-11-30T16:57:52.242Z,16.07
2017-11-30T17:00:19.712Z,20.43
2017-11-30T17:02:47.182Z,17.13
2017-11-30T17:05:14.682Z,16.97
2017-11-30T17:07:42.154Z,21.47
2017-11-30T17:10:09.637Z,20.30
2017-11-30T17:12:37.101Z,18.27
2017-11-30T17:15:04.669Z,27.80
2017-11-30T17:17:32.162Z,22.30
2017-11-30T17:19:59.730Z,22.07
2017-11-30T17:22:27.198Z,20.77
2017-11-30T17:24:54.684Z,18.40
2017-11-30T17:27:22.158Z,18.37
2017-11-30T17:29:49.632Z,17.03
2017-11-30T17:32:17.121Z,19.43
2017-11-30T17:34:44.593Z,19.97
2017-11-30T17:37:12.091Z,20.63
2017-11-30T17:39:39.721Z,19.57
2017-11-30T17:42:07.189Z,19.07
2017-11-30T17:44:34.666Z,24.37
2017-11-30T17:47:02.159Z,20.73
2017-11-30T17:49:29.633Z,20.83
2017-11-30T17:51:57.101Z,23.57
2017-11-30T17:54:24.588Z,22.63
2017-11-30T17:56:52.157Z,21.53
2017-11-30T17:59:19.624Z,20.87
2017-11-30T18:01:47.140Z,23.93
2017-11-30T18:04:14.608Z,34.33
2017-11-30T18:06:42.072Z,21.33
2017-11-30T18:09:09.570Z,33.73
2017-11-30T18:11:37.041Z,24.50
2017-11-30T18:14:04.528Z,50.23
2017-11-30T18:16:32.462Z,51.73
2017-11-30T18:18:59.937Z,30.40
2017-11-30T18:21:27.453Z,22.87
2017-11-30T18:23:54.927Z,26.23
2017-11-30T18:26:22.413Z,25.00
2017-11-30T18:28:49.902Z,33.87
2017-11-30T18:31:17.372Z,21.40
2017-11-30T18:33:44.856Z,31.17
2017-11-30T18:36:13.965Z,19.33
2017-11-30T18:38:41.470Z,27.93
2017-11-30T18:41:08.940Z,17.70
2017-11-30T18:43:36.417Z,20.20
2017-11-30T18:46:04.052Z,18.77
2017-11-30T18:48:31.527Z,22.43
2017-11-30T18:50:59.273Z,17.87
2017-11-30T18:53:26.765Z,17.30
2017-11-30T18:55:54.253Z,32.17
2017-11-30T18:58:21.813Z,28.30
2017-11-30T19:00:49.309Z,20.10
2017-11-30T19:03:17.408Z,20.87
2017-11-30T19:05:44.901Z,18.10
2017-11-30T19:08:12.369Z,17.27
2017-11-30T19:10:39.857Z,17.77
2017-11-30T19:13:07.330Z,23.83
2017-11-30T19:15:34.829Z,24.00
2017-11-30T19:18:03.016Z,22.57
2017-11-30T19:20:30.485Z,23.90
2017-11-30T19:22:57.978Z,19.73
2017-11-30T19:25:25.449Z,25.67
2017-11-30T19:27:52.916Z,20.67
2017-11-30T19:30:21.341Z,66.37
2017-11-30T19:32:48.873Z,45.50
2017-11-30T19:35:16.390Z,49.93
2017-11-30T19:37:43.869Z,26.17
2017-11-30T19:40:11.341Z,25.53
2017-11-30T19:42:38.837Z,17.40
2017-11-30T19:45:06.324Z,20.10
2017-11-30T19:47:33.793Z,19.27
2017-11-30T19:50:01.292Z,20.30
2017-11-30T19:52:28.760Z,18.03
2017-11-30T19:54:57.105Z,23.23
2017-11-30T19:57:24.593Z,20.37
2017-11-30T19:59:52.193Z,16.33
2017-11-30T20:02:19.852Z,16.60
2017-11-30T20:04:47.339Z,16.50
2017-11-30T20:07:14.805Z,17.70
2017-11-30T20:09:42.280Z,17.03
2017-11-30T20:12:09.773Z,25.67
2017-11-30T20:14:37.248Z,18.37
2017-11-30T20:17:04.744Z,15.67
2017-11-30T20:19:32.214Z,17.07
2017-11-30T20:21:59.697Z,18.93
2017-11-30T20:24:27.188Z,19.93
2017-11-30T20:26:55.246Z,21.43
2017-11-30T20:29:22.736Z,19.57
2017-11-30T20:31:50.209Z,16.87
2017-11-30T20:34:17.676Z,18.83
2017-11-30T20:36:45.201Z,20.03
2017-11-30T20:39:13.570Z,23.67
2017-11-30T20:41:41.058Z,18.43
2017-11-30T20:44:08.528Z,16.73
2017-11-30T20:46:36.001Z,22.33
2017-11-30T20:49:03.485Z,20.50
2017-11-30T20:51:30.957Z,20.70
2017-11-30T20:53:58.445Z,30.03
2017-11-30T20:56:26.100Z,24.37
2017-11-30T20:58:53.623Z,20.27
2017-11-30T21:01:21.108Z,17.33
2017-11-30T21:03:48.575Z,16.63
2017-11-30T21:06:16.061Z,17.90
2017-11-30T21:08:43.532Z,16.33
2017-11-30T21:11:10.996Z,19.10
2017-11-30T21:13:39.406Z,16.60
2017-11-30T21:16:06.877Z,16.43
2017-11-30T21:18:34.348Z,14.20
2017-11-30T21:21:01.833Z,14.13
2017-11-30T21:23:29.309Z,13.83
2017-11-30T21:25:57.548Z,15.43
2017-11-30T21:28:25.037Z,13.83
2017-11-30T21:30:52.501Z,13.83
2017-11-30T21:33:19.964Z,13.77
2017-11-30T21:35:47.457Z,27.47
2017-11-30T21:38:14.989Z,16.37
2017-11-30T21:40:42.480Z,17.70
2017-11-30T21:43:09.965Z,17.47
2017-11-30T21:45:37.433Z,13.37
2017-11-30T21:48:04.905Z,13.40
2017-11-30T21:50:32.412Z,12.80
2017-11-30T21:52:59.877Z,13.70
2017-11-30T21:55:27.344Z,12.17
2017-11-30T21:57:54.832Z,12.80
2017-11-30T22:00:22.307Z,12.43
2017-11-30T22:02:49.778Z,12.83
2017-11-30T22:05:18.093Z,12.90
2017-11-30T22:07:45.573Z,12.17
2017-11-30T22:10:13.091Z,13.80
2017-11-30T22:12:40.546Z,12.83
2017-11-30T22:15:08.016Z,13.90
2017-11-30T22:17:35.504Z,14.50
2017-11-30T22:20:02.968Z,21.27
2017-11-30T22:22:30.440Z,20.00
2017-11-30T22:24:58.000Z,32.03
2017-11-30T22:27:25.464Z,30.43
2017-11-30T22:29:52.933Z,22.53
2017-11-30T22:32:20.433Z,35.30
2017-11-30T22:34:47.906Z,46.77
2017-11-30T22:37:15.376Z,49.73
2017-11-30T22:39:42.887Z,50.20
2017-11-30T22:42:10.353Z,34.93
2017-11-30T22:44:37.825Z,31.30
2017-11-30T22:47:05.313Z,26.00
2017-11-30T22:49:32.822Z,38.30
2017-11-30T22:52:00.297Z,20.40
2017-11-30T22:54:27.781Z,17.07
2017-11-30T22:56:55.248Z,14.50
2017-11-30T22:59:22.713Z,15.53
2017-11-30T23:01:50.201Z,14.80
2017-11-30T23:04:17.990Z,14.70
2017-11-30T23:06:45.473Z,13.67
2017-11-30T23:09:12.937Z,14.03
2017-11-30T23:11:40.429Z,13.17
2017-11-30T23:14:07.900Z,13.40
2017-11-30T23:16:35.369Z,13.00
2017-11-30T23:19:02.884Z,13.50
2017-11-30T23:21:30.348Z,11.80
2017-11-30T23:23:57.828Z,12.50
2017-11-30T23:26:25.309Z,12.43
2017-11-30T23:28:52.787Z,12.40
2017-11-30T23:31:20.318Z,12.57
2017-11-30T23:33:47.804Z,12.50
2017-11-30T23:36:15.274Z,11.53
2017-11-30T23:38:42.746Z,11.47
2017-11-30T23:41:10.229Z,11.80
2017-11-30T23:43:37.697Z,11.33
2017-11-30T23:46:05.160Z,13.00
2017-11-30T23:48:32.642Z,11.83
2017-11-30T23:51:00.122Z,11.40
2017-11-30T23:53:27.589Z,12.40
2017-11-30T23:55:55.145Z,13.00
2017-11-30T23:58:22.613Z,12.00
